createdAt,value
2018-12-22T00:00:40.565Z,0
2018-12-22T00:01:39.161Z,0
2018-12-22T00:02:37.872Z,0
2018-12-22T00:03:36.554Z,0
2018-12-22T00:04:35.153Z,0
2018-12-22T00:05:33.710Z,0
2018-12-22T00:06:32.451Z,0
2018-12-22T00:07:30.985Z,0
2018-12-22T00:08:29.542Z,0
2018-12-22T00:09:28.131Z,0
2018-12-22T00:12:43.555Z,0
2018-12-22T00:13:42.307Z,0
2018-12-22T00:14:40.829Z,0
2018-12-22T00:15:39.469Z,0
2018-12-22T00:16:38.165Z,0
2018-12-22T00:17:36.779Z,0
2018-12-22T00:18:35.346Z,0
2018-12-22T00:19:34.123Z,0
2018-12-22T00:20:32.978Z,0
2018-12-22T00:21:31.698Z,0
2018-12-22T00:22:30.277Z,0
2018-12-22T00:23:28.878Z,0
2018-12-22T00:24:27.355Z,0
2018-12-22T00:25:25.894Z,0
2018-12-22T00:26:24.427Z,0
2018-12-22T00:27:23.030Z,0
2018-12-22T00:28:22.226Z,0
2018-12-22T00:29:20.396Z,0
2018-12-22T00:30:18.992Z,0
2018-12-22T00:31:17.626Z,0
2018-12-22T00:32:16.423Z,0
2018-12-22T00:33:15.770Z,0
2018-12-22T00:34:13.553Z,0
2018-12-22T00:35:12.033Z,0
2018-12-22T00:36:10.579Z,0
2018-12-22T00:37:09.126Z,0
2018-12-22T00:38:07.840Z,0
2018-12-22T00:39:06.585Z,0
2018-12-22T00:40:05.107Z,0
2018-12-22T00:41:03.824Z,0
2018-12-22T00:42:02.566Z,0
2018-12-22T00:43:01.098Z,0
2018-12-22T00:43:59.691Z,0
2018-12-22T00:44:58.246Z,0
2018-12-22T00:45:56.819Z,0
2018-12-22T00:46:55.620Z,0
2018-12-22T00:47:54.368Z,0
2018-12-22T00:48:52.975Z,0
2018-12-22T00:49:51.723Z,0
2018-12-22T00:50:50.275Z,0
2018-12-22T00:51:48.819Z,0
2018-12-22T00:52:47.394Z,0
2018-12-22T00:53:45.860Z,0
2018-12-22T00:54:44.394Z,0
2018-12-22T00:55:42.972Z,0
2018-12-22T00:56:41.668Z,0
2018-12-22T00:57:40.559Z,0
2018-12-22T00:58:39.095Z,0
2018-12-22T00:59:37.758Z,0
2018-12-22T01:00:36.394Z,0
2018-12-22T01:01:34.914Z,0
2018-12-22T01:02:33.478Z,0
2018-12-22T01:03:32.060Z,0
2018-12-22T01:04:30.571Z,0
2018-12-22T01:05:29.091Z,0
2018-12-22T01:06:27.804Z,0
2018-12-22T01:07:26.611Z,0
2018-12-22T01:08:26.138Z,0
2018-12-22T01:09:24.864Z,0
2018-12-22T01:10:23.440Z,0
2018-12-22T01:11:22.010Z,0
2018-12-22T01:12:20.553Z,0
2018-12-22T01:13:19.159Z,0
2018-12-22T01:14:17.694Z,0
2018-12-22T01:15:16.338Z,0
2018-12-22T01:16:14.883Z,0
2018-12-22T01:17:13.462Z,0
2018-12-22T01:18:12.353Z,0
2018-12-22T01:19:10.860Z,0
2018-12-22T01:22:18.514Z,0
2018-12-22T01:23:16.998Z,0
2018-12-22T01:24:15.523Z,0
2018-12-22T01:25:14.121Z,0
2018-12-22T01:26:12.702Z,0
2018-12-22T01:27:11.241Z,0
2018-12-22T01:28:10.050Z,0
2018-12-22T01:29:08.623Z,0
2018-12-22T01:30:07.193Z,0
2018-12-22T01:31:05.820Z,0
2018-12-22T01:32:04.559Z,0
2018-12-22T01:33:03.078Z,0
2018-12-22T01:34:01.616Z,0
2018-12-22T01:35:00.165Z,0
2018-12-22T01:35:58.707Z,0
2018-12-22T01:36:57.320Z,0
2018-12-22T01:37:55.999Z,0
2018-12-22T01:38:54.728Z,0
2018-12-22T01:39:53.367Z,0
2018-12-22T01:40:52.160Z,0
2018-12-22T01:41:50.746Z,0
2018-12-22T01:42:49.326Z,0
2018-12-22T01:43:48.008Z,0
2018-12-22T01:44:46.579Z,0
2018-12-22T01:45:45.100Z,0
2018-12-22T01:46:43.922Z,0
2018-12-22T01:47:42.516Z,0
2018-12-22T01:48:41.070Z,0
2018-12-22T01:49:39.783Z,0
2018-12-22T01:50:38.362Z,0
2018-12-22T01:51:36.892Z,0
2018-12-22T01:52:35.446Z,0
2018-12-22T01:53:34.055Z,0
2018-12-22T01:54:32.627Z,0
2018-12-22T01:55:31.199Z,0
2018-12-22T01:56:29.824Z,0
2018-12-22T01:57:28.501Z,0
2018-12-22T01:58:27.022Z,0
2018-12-22T01:59:25.692Z,0
2018-12-22T02:00:24.599Z,0
2018-12-22T02:01:23.183Z,0
2018-12-22T02:02:21.928Z,0
2018-12-22T02:03:20.708Z,0
2018-12-22T02:04:19.250Z,0
2018-12-22T02:05:18.049Z,0
2018-12-22T02:06:16.606Z,0
2018-12-22T02:07:15.149Z,0
2018-12-22T02:08:13.674Z,0
2018-12-22T02:09:12.194Z,0
2018-12-22T02:10:10.766Z,0
2018-12-22T02:11:09.302Z,0
2018-12-22T02:12:08.023Z,0
2018-12-22T02:13:06.792Z,0
2018-12-22T02:14:05.302Z,0
2018-12-22T02:15:04.051Z,0
2018-12-22T02:16:02.644Z,0
2018-12-22T02:17:01.292Z,0
2018-12-22T02:17:59.864Z,0
2018-12-22T02:18:58.384Z,0
2018-12-22T02:19:56.906Z,0
2018-12-22T02:20:55.434Z,0
2018-12-22T02:21:54.052Z,0
2018-12-22T02:22:52.638Z,0
2018-12-22T02:23:51.206Z,0
2018-12-22T02:24:49.790Z,0
2018-12-22T02:25:48.453Z,0
2018-12-22T02:26:46.976Z,0
2018-12-22T02:27:45.665Z,0
2018-12-22T02:28:44.505Z,0
2018-12-22T02:29:43.052Z,0
2018-12-22T02:30:41.607Z,0
2018-12-22T02:31:40.162Z,0
2018-12-22T02:32:38.687Z,0
2018-12-22T02:33:37.224Z,0
2018-12-22T02:34:35.965Z,0
2018-12-22T02:35:34.680Z,0
2018-12-22T02:36:33.238Z,0
2018-12-22T02:37:31.843Z,0
2018-12-22T02:38:30.659Z,0
2018-12-22T02:39:29.243Z,0
2018-12-22T02:40:28.144Z,0
2018-12-22T02:41:26.756Z,0
2018-12-22T02:42:25.288Z,0
2018-12-22T02:43:24.202Z,0
2018-12-22T02:44:22.711Z,0
2018-12-22T02:45:21.258Z,0
2018-12-22T02:46:19.829Z,0
2018-12-22T02:47:18.359Z,0
2018-12-22T02:48:16.912Z,0
2018-12-22T02:49:15.436Z,0
2018-12-22T02:50:14.584Z,0
2018-12-22T02:51:13.098Z,0
2018-12-22T02:52:11.768Z,0
2018-12-22T02:53:10.341Z,0
2018-12-22T02:54:08.907Z,0
2018-12-22T02:55:07.444Z,0
2018-12-22T02:56:06.193Z,0
2018-12-22T02:57:04.732Z,0
2018-12-22T02:58:03.315Z,0
2018-12-22T02:59:06.024Z,0
2018-12-22T03:00:00.838Z,0
2018-12-22T03:00:59.421Z,0
2018-12-22T03:01:58.017Z,0
2018-12-22T03:02:56.610Z,0
2018-12-22T03:03:55.170Z,0
2018-12-22T03:04:53.737Z,0
2018-12-22T03:05:52.434Z,0
2018-12-22T03:06:50.996Z,0
2018-12-22T03:07:49.539Z,0
2018-12-22T03:08:48.298Z,0
2018-12-22T03:09:46.820Z,0
2018-12-22T03:10:45.368Z,0
2018-12-22T03:11:44.150Z,0
2018-12-22T03:12:42.737Z,0
2018-12-22T03:13:41.313Z,0
2018-12-22T03:14:40.059Z,0
2018-12-22T03:15:38.780Z,0
2018-12-22T03:16:37.334Z,0
2018-12-22T03:17:35.940Z,0
2018-12-22T03:18:34.595Z,0
2018-12-22T03:19:33.125Z,0
2018-12-22T03:20:31.774Z,0
2018-12-22T03:21:30.296Z,0
2018-12-22T03:22:28.866Z,0
2018-12-22T03:23:27.450Z,0
2018-12-22T03:24:26.021Z,0
2018-12-22T03:25:24.576Z,0
2018-12-22T03:26:23.179Z,0
2018-12-22T03:27:21.810Z,0
2018-12-22T03:28:20.453Z,0
2018-12-22T03:29:18.943Z,0
2018-12-22T03:30:17.590Z,0
2018-12-22T03:31:16.452Z,0
2018-12-22T03:32:15.010Z,0
2018-12-22T03:33:13.564Z,0
2018-12-22T03:34:12.178Z,0
2018-12-22T03:35:10.707Z,0
2018-12-22T03:36:09.261Z,0
2018-12-22T03:37:07.950Z,0
2018-12-22T03:38:06.613Z,0
2018-12-22T03:39:05.170Z,0
2018-12-22T03:40:03.783Z,0
2018-12-22T03:41:02.394Z,0
2018-12-22T03:42:00.906Z,0
2018-12-22T03:42:59.522Z,0
2018-12-22T03:43:58.255Z,0
2018-12-22T03:44:56.777Z,0
2018-12-22T03:45:55.302Z,0
2018-12-22T03:46:53.846Z,0
2018-12-22T03:47:52.377Z,0
2018-12-22T03:48:50.941Z,0
2018-12-22T03:49:49.640Z,0
2018-12-22T03:50:48.592Z,0
2018-12-22T03:51:47.115Z,0
2018-12-22T03:52:45.756Z,0
2018-12-22T03:53:44.401Z,0
2018-12-22T03:54:42.948Z,0
2018-12-22T03:55:41.453Z,0
2018-12-22T03:56:40.014Z,0
2018-12-22T03:57:38.542Z,0
2018-12-22T03:58:37.074Z,0
2018-12-22T03:59:35.814Z,0
2018-12-22T04:00:34.577Z,0
2018-12-22T04:01:33.088Z,0
2018-12-22T04:02:31.686Z,0
2018-12-22T04:03:30.462Z,0
2018-12-22T04:04:29.018Z,0
2018-12-22T04:05:27.541Z,0
2018-12-22T04:06:26.140Z,0
2018-12-22T04:07:24.692Z,0
2018-12-22T04:08:23.311Z,0
2018-12-22T04:09:21.924Z,0
2018-12-22T04:10:20.657Z,0
2018-12-22T04:11:19.176Z,0
2018-12-22T04:12:17.781Z,0
2018-12-22T04:13:16.453Z,0
2018-12-22T04:14:15.022Z,0
2018-12-22T04:15:13.591Z,0
2018-12-22T04:16:12.174Z,0
2018-12-22T04:17:10.800Z,0
2018-12-22T04:18:09.318Z,0
2018-12-22T04:19:07.866Z,0
2018-12-22T04:20:06.411Z,0
2018-12-22T04:21:04.946Z,0
2018-12-22T04:22:03.568Z,0
2018-12-22T04:23:02.234Z,0
2018-12-22T04:24:00.755Z,0
2018-12-22T04:24:59.289Z,0
2018-12-22T04:25:58.116Z,0
2018-12-22T04:26:56.816Z,0
2018-12-22T04:27:55.350Z,0
2018-12-22T04:28:53.935Z,0
2018-12-22T04:29:52.491Z,0
2018-12-22T04:30:50.980Z,0
2018-12-22T04:31:50.787Z,0
2018-12-22T04:32:48.025Z,0
2018-12-22T04:33:46.580Z,0
2018-12-22T04:34:45.130Z,0
2018-12-22T04:35:43.676Z,0
2018-12-22T04:36:42.406Z,0
2018-12-22T04:37:40.923Z,0
2018-12-22T04:38:39.482Z,0
2018-12-22T04:39:38.432Z,0
2018-12-22T04:40:36.933Z,0
2018-12-22T04:41:35.528Z,0
2018-12-22T04:42:34.146Z,0
2018-12-22T04:43:32.676Z,0
2018-12-22T04:44:31.260Z,0
2018-12-22T04:45:29.870Z,0
2018-12-22T04:46:28.419Z,0
2018-12-22T04:47:26.949Z,0
2018-12-22T04:48:25.635Z,0
2018-12-22T04:49:24.450Z,0
2018-12-22T04:50:22.994Z,0
2018-12-22T04:51:21.519Z,0
2018-12-22T04:52:20.372Z,0
2018-12-22T04:53:18.949Z,0
2018-12-22T04:54:17.630Z,0
2018-12-22T04:55:16.499Z,0
2018-12-22T04:56:15.046Z,0
2018-12-22T04:57:13.588Z,0
2018-12-22T04:58:12.439Z,0
2018-12-22T04:59:11.018Z,0
2018-12-22T05:00:09.755Z,0
2018-12-22T05:01:08.492Z,0
2018-12-22T05:02:07.026Z,0
2018-12-22T05:03:05.633Z,0
2018-12-22T05:04:04.213Z,0
2018-12-22T05:05:02.869Z,0
2018-12-22T05:06:01.394Z,0
2018-12-22T05:07:00.028Z,0
2018-12-22T05:07:58.655Z,0
2018-12-22T05:08:57.296Z,0
2018-12-22T05:09:55.961Z,0
2018-12-22T05:10:54.679Z,0
2018-12-22T05:11:53.319Z,0
2018-12-22T05:12:52.093Z,0
2018-12-22T05:13:50.677Z,0
2018-12-22T05:14:49.343Z,0
2018-12-22T05:15:48.038Z,0
2018-12-22T05:16:46.668Z,0
2018-12-22T05:17:45.211Z,0
2018-12-22T05:18:43.931Z,0
2018-12-22T05:19:42.631Z,0
2018-12-22T05:20:41.198Z,0
2018-12-22T05:21:39.758Z,0
2018-12-22T05:22:38.316Z,0
2018-12-22T05:23:36.874Z,0
2018-12-22T05:24:35.429Z,0
2018-12-22T05:25:33.960Z,0
2018-12-22T05:26:32.527Z,0
2018-12-22T05:27:31.065Z,0
2018-12-22T05:28:29.579Z,0
2018-12-22T05:29:28.419Z,0
2018-12-22T05:30:26.935Z,0
2018-12-22T05:31:25.510Z,0
2018-12-22T05:32:24.170Z,0
2018-12-22T05:33:22.841Z,0
2018-12-22T05:34:21.385Z,0
2018-12-22T05:35:20.005Z,0
2018-12-22T05:36:18.557Z,0
2018-12-22T05:37:17.205Z,0
2018-12-22T05:38:15.699Z,0
2018-12-22T05:39:14.328Z,0
2018-12-22T05:40:12.884Z,0
2018-12-22T05:41:11.420Z,0
2018-12-22T05:42:10.429Z,0
2018-12-22T05:43:08.987Z,0
2018-12-22T05:44:07.494Z,0
2018-12-22T05:45:06.188Z,0
2018-12-22T05:46:04.713Z,0
2018-12-22T05:47:03.399Z,0
2018-12-22T05:48:01.880Z,0
2018-12-22T05:49:00.508Z,0
2018-12-22T05:49:59.082Z,0
2018-12-22T05:50:57.637Z,0
2018-12-22T05:51:56.478Z,0
2018-12-22T05:52:54.963Z,0
2018-12-22T05:53:53.537Z,0
2018-12-22T05:54:52.302Z,0
2018-12-22T05:55:50.809Z,0
2018-12-22T05:56:49.384Z,0
2018-12-22T05:57:48.036Z,0
2018-12-22T05:58:46.580Z,0
2018-12-22T05:59:45.089Z,0
2018-12-22T06:00:43.930Z,0
2018-12-22T06:01:42.589Z,0
2018-12-22T06:02:41.114Z,0
2018-12-22T06:03:39.697Z,0
2018-12-22T06:04:38.584Z,0
2018-12-22T06:05:37.162Z,0
2018-12-22T06:06:35.944Z,0
2018-12-22T06:07:34.686Z,0
2018-12-22T06:08:33.172Z,0
2018-12-22T06:09:31.791Z,0
2018-12-22T06:10:30.574Z,0
2018-12-22T06:11:29.135Z,0
2018-12-22T06:12:27.649Z,0
2018-12-22T06:13:26.197Z,0
2018-12-22T06:14:24.732Z,0
2018-12-22T06:15:23.262Z,0
2018-12-22T06:16:21.781Z,0
2018-12-22T06:17:20.421Z,0
2018-12-22T06:18:19.002Z,0
2018-12-22T06:19:17.645Z,0
2018-12-22T06:21:58.009Z,0
2018-12-22T06:22:56.656Z,0
2018-12-22T06:23:55.256Z,0
2018-12-22T06:24:53.757Z,0
2018-12-22T06:25:52.319Z,0
2018-12-22T06:26:50.803Z,0
2018-12-22T06:27:49.599Z,0
2018-12-22T06:28:48.223Z,0
2018-12-22T06:29:46.806Z,0
2018-12-22T06:32:11.486Z,0
2018-12-22T06:33:10.149Z,0
2018-12-22T06:34:08.690Z,0
2018-12-22T06:35:07.245Z,0
2018-12-22T06:36:05.795Z,0
2018-12-22T06:37:04.417Z,0
2018-12-22T06:38:02.940Z,0
2018-12-22T06:39:01.604Z,0
2018-12-22T06:40:00.498Z,0
2018-12-22T06:40:58.958Z,0
2018-12-22T06:41:57.530Z,0
2018-12-22T06:42:56.297Z,0
2018-12-22T06:43:54.811Z,0
2018-12-22T06:44:53.447Z,0
2018-12-22T06:45:52.207Z,0
2018-12-22T06:46:50.830Z,0
2018-12-22T06:47:49.435Z,0
2018-12-22T06:48:48.115Z,0
2018-12-22T06:49:46.792Z,0
2018-12-22T06:50:45.388Z,0
2018-12-22T06:51:43.939Z,0
2018-12-22T06:52:42.531Z,0
2018-12-22T06:53:49.137Z,0
2018-12-22T06:54:47.708Z,0
2018-12-22T06:55:46.502Z,0
2018-12-22T06:56:45.102Z,0
2018-12-22T06:57:43.751Z,0
2018-12-22T06:58:42.340Z,0
2018-12-22T06:59:40.884Z,0
2018-12-22T07:00:39.389Z,0
2018-12-22T07:01:38.207Z,0
2018-12-22T07:02:36.754Z,0
2018-12-22T07:03:35.312Z,0
2018-12-22T07:04:34.150Z,0
2018-12-22T07:05:32.803Z,0
2018-12-22T07:06:31.338Z,0
2018-12-22T07:07:30.092Z,0
2018-12-22T07:08:28.688Z,0
2018-12-22T07:09:27.241Z,0
2018-12-22T07:10:25.928Z,0
2018-12-22T07:11:24.572Z,0
2018-12-22T07:12:23.086Z,0
2018-12-22T07:13:21.809Z,0
2018-12-22T07:14:20.642Z,0
2018-12-22T07:15:19.192Z,0
2018-12-22T07:16:17.755Z,0
2018-12-22T07:17:16.309Z,0
2018-12-22T07:18:14.900Z,0
2018-12-22T07:19:13.409Z,0
2018-12-22T07:20:11.928Z,0
2018-12-22T07:21:10.520Z,0
2018-12-22T07:22:09.125Z,0
2018-12-22T07:23:07.664Z,0
2018-12-22T07:24:06.467Z,0
2018-12-22T07:25:04.987Z,0
2018-12-22T07:26:03.484Z,0
2018-12-22T07:27:02.448Z,0
2018-12-22T07:28:00.975Z,0
2018-12-22T07:28:59.666Z,0
2018-12-22T07:29:58.435Z,0
2018-12-22T07:30:57.089Z,0
2018-12-22T07:31:55.687Z,0
2018-12-22T07:32:57.053Z,0
2018-12-22T07:33:53.175Z,0
2018-12-22T07:34:51.784Z,0
2018-12-22T07:35:50.656Z,0
2018-12-22T07:36:49.174Z,0
2018-12-22T07:37:47.902Z,0
2018-12-22T07:38:46.517Z,0
2018-12-22T07:39:45.052Z,0
2018-12-22T07:40:43.575Z,0
2018-12-22T07:41:42.137Z,0
2018-12-22T07:42:40.673Z,0
2018-12-22T07:43:39.265Z,0
2018-12-22T07:44:38.683Z,0
2018-12-22T07:45:37.203Z,0
2018-12-22T07:46:35.808Z,0
2018-12-22T07:47:34.585Z,0
2018-12-22T07:48:33.130Z,0
2018-12-22T07:49:31.848Z,0
2018-12-22T07:50:30.778Z,0
2018-12-22T07:51:29.202Z,0
2018-12-22T07:52:27.715Z,0
2018-12-22T07:53:26.278Z,0
2018-12-22T07:54:24.794Z,0
2018-12-22T07:55:23.371Z,0
2018-12-22T07:56:22.250Z,0
2018-12-22T07:57:20.891Z,0
2018-12-22T07:58:19.442Z,0
2018-12-22T07:59:18.340Z,5
2018-12-22T08:00:17.005Z,5
2018-12-22T08:01:15.812Z,5
2018-12-22T08:02:14.614Z,10
2018-12-22T08:03:15.291Z,10
2018-12-22T08:04:13.819Z,5
2018-12-22T08:05:12.402Z,5
2018-12-22T08:06:11.044Z,5
2018-12-22T08:07:09.731Z,5
2018-12-22T08:08:08.706Z,5
2018-12-22T08:09:07.219Z,5
2018-12-22T08:10:05.924Z,5
2018-12-22T08:11:04.513Z,5
2018-12-22T08:12:03.081Z,5
2018-12-22T08:13:01.573Z,10
2018-12-22T08:14:00.495Z,10
2018-12-22T08:14:59.119Z,10
2018-12-22T08:15:57.704Z,15
2018-12-22T08:16:56.509Z,20
2018-12-22T08:17:55.166Z,20
2018-12-22T08:18:53.926Z,15
2018-12-22T08:19:52.640Z,15
2018-12-22T08:20:51.281Z,10
2018-12-22T08:21:50.130Z,10
2018-12-22T08:22:48.781Z,10
2018-12-22T08:23:47.280Z,15
2018-12-22T08:24:46.095Z,15
2018-12-22T08:25:44.898Z,15
2018-12-22T08:26:43.381Z,15
2018-12-22T08:27:42.246Z,15
2018-12-22T08:30:23.011Z,10
2018-12-22T08:31:23.080Z,10
2018-12-22T08:32:20.186Z,10
2018-12-22T08:33:18.754Z,5
2018-12-22T08:34:17.370Z,5
2018-12-22T08:35:16.149Z,10
2018-12-22T08:36:14.861Z,15
2018-12-22T08:37:13.411Z,15
2018-12-22T08:38:12.188Z,20
2018-12-22T08:39:10.857Z,15
2018-12-22T08:40:09.325Z,15
2018-12-22T08:41:07.830Z,10
2018-12-22T08:42:06.338Z,15
2018-12-22T08:43:04.878Z,25
2018-12-22T08:44:03.470Z,35
2018-12-22T08:45:02.186Z,40
2018-12-22T08:46:00.928Z,45
2018-12-22T08:46:59.492Z,50
2018-12-22T08:47:58.359Z,55
2018-12-22T08:48:57.102Z,60
2018-12-22T08:49:55.810Z,60
2018-12-22T08:50:54.614Z,60
2018-12-22T08:51:53.231Z,65
2018-12-22T08:52:51.969Z,55
2018-12-22T08:53:50.510Z,50
2018-12-22T08:54:49.131Z,40
2018-12-22T08:55:47.849Z,35
2018-12-22T08:56:46.748Z,30
2018-12-22T08:57:45.330Z,20
2018-12-22T08:58:43.971Z,20
2018-12-22T08:59:42.650Z,20
2018-12-22T09:00:41.195Z,25
2018-12-22T09:01:39.922Z,30
2018-12-22T09:02:38.608Z,30
2018-12-22T09:03:37.139Z,35
2018-12-22T09:04:35.785Z,35
2018-12-22T09:05:34.563Z,40
2018-12-22T09:06:33.215Z,45
2018-12-22T09:07:31.783Z,45
2018-12-22T09:08:30.484Z,50
2018-12-22T09:09:29.022Z,45
2018-12-22T09:10:27.606Z,35
2018-12-22T09:11:26.382Z,35
2018-12-22T09:12:25.131Z,30
2018-12-22T09:13:23.644Z,30
2018-12-22T09:14:22.394Z,20
2018-12-22T09:15:20.967Z,20
2018-12-22T09:16:19.572Z,25
2018-12-22T09:17:18.201Z,35
2018-12-22T09:18:16.877Z,40
2018-12-22T09:19:15.375Z,45
2018-12-22T09:20:14.133Z,45
2018-12-22T09:21:12.833Z,35
2018-12-22T09:22:11.313Z,35
2018-12-22T09:23:10.213Z,30
2018-12-22T09:24:08.869Z,30
2018-12-22T09:25:07.426Z,35
2018-12-22T09:26:08.382Z,30
2018-12-22T09:27:04.887Z,25
2018-12-22T09:28:03.316Z,20
2018-12-22T09:29:01.946Z,15
2018-12-22T09:30:00.515Z,15
2018-12-22T09:31:00.834Z,15
2018-12-22T09:31:57.703Z,10
2018-12-22T09:32:56.333Z,10
2018-12-22T09:33:54.916Z,20
2018-12-22T09:35:01.530Z,20
2018-12-22T09:36:00.396Z,20
2018-12-22T09:36:58.914Z,20
2018-12-22T09:37:57.441Z,15
2018-12-22T09:38:55.991Z,15
2018-12-22T09:39:54.587Z,15
2018-12-22T09:40:53.081Z,20
2018-12-22T09:41:51.853Z,20
2018-12-22T09:42:50.738Z,20
2018-12-22T09:43:49.258Z,15
2018-12-22T09:44:47.956Z,15
2018-12-22T09:45:46.579Z,10
2018-12-22T09:46:45.089Z,15
2018-12-22T09:47:43.643Z,20
2018-12-22T09:48:42.218Z,20
2018-12-22T09:49:40.722Z,20
2018-12-22T09:50:39.266Z,25
2018-12-22T09:51:37.798Z,25
2018-12-22T09:52:36.282Z,30
2018-12-22T09:53:34.864Z,30
2018-12-22T09:54:33.476Z,30
2018-12-22T09:55:32.181Z,30
2018-12-22T09:56:30.804Z,20
2018-12-22T09:57:29.369Z,20
2018-12-22T09:58:28.268Z,20
2018-12-22T09:59:26.843Z,25
2018-12-22T10:00:25.354Z,30
2018-12-22T10:01:23.904Z,25
2018-12-22T10:02:22.533Z,30
2018-12-22T10:03:21.084Z,20
2018-12-22T10:04:19.761Z,20
2018-12-22T10:05:18.539Z,25
2018-12-22T10:06:18.588Z,25
2018-12-22T10:07:15.752Z,25
2018-12-22T10:08:14.392Z,35
2018-12-22T10:09:12.932Z,45
2018-12-22T10:10:11.505Z,40
2018-12-22T10:11:10.018Z,40
2018-12-22T10:12:08.593Z,40
2018-12-22T10:13:07.172Z,50
2018-12-22T10:14:05.886Z,40
2018-12-22T10:15:04.690Z,35
2018-12-22T10:16:03.219Z,35
2018-12-22T10:17:01.851Z,40
2018-12-22T10:18:00.577Z,45
2018-12-22T10:18:59.158Z,40
2018-12-22T10:19:57.663Z,35
2018-12-22T10:20:56.504Z,30
2018-12-22T10:21:55.067Z,35
2018-12-22T10:22:53.782Z,45
2018-12-22T10:23:52.690Z,55
2018-12-22T10:24:51.172Z,50
2018-12-22T10:25:49.816Z,45
2018-12-22T10:26:48.572Z,40
2018-12-22T10:27:47.144Z,35
2018-12-22T10:28:45.914Z,35
2018-12-22T10:29:44.731Z,30
2018-12-22T10:30:43.377Z,30
2018-12-22T10:31:42.156Z,45
2018-12-22T10:32:40.851Z,50
2018-12-22T10:33:39.776Z,55
2018-12-22T10:34:38.389Z,45
2018-12-22T10:35:36.899Z,30
2018-12-22T10:36:35.448Z,20
2018-12-22T10:37:34.301Z,15
2018-12-22T10:38:32.950Z,10
2018-12-22T10:39:31.510Z,15
2018-12-22T10:40:30.481Z,20
2018-12-22T10:41:29.035Z,25
2018-12-22T10:42:27.699Z,30
2018-12-22T10:43:26.378Z,40
2018-12-22T10:44:25.099Z,50
2018-12-22T10:45:23.726Z,55
2018-12-22T10:46:22.497Z,55
2018-12-22T10:47:21.081Z,55
2018-12-22T10:48:19.611Z,60
2018-12-22T10:49:18.155Z,60
2018-12-22T10:50:16.717Z,60
2018-12-22T10:51:15.255Z,60
2018-12-22T10:52:13.924Z,55
2018-12-22T10:53:12.752Z,55
2018-12-22T10:54:11.451Z,50
2018-12-22T10:55:11.524Z,50
2018-12-22T10:57:34.492Z,35
2018-12-22T10:58:33.158Z,30
2018-12-22T10:59:31.895Z,25
2018-12-22T11:00:30.747Z,30
2018-12-22T11:01:29.344Z,30
2018-12-22T11:02:28.074Z,25
2018-12-22T11:03:26.650Z,30
2018-12-22T11:04:25.217Z,30
2018-12-22T11:05:23.966Z,30
2018-12-22T11:07:47.166Z,35
2018-12-22T11:08:45.852Z,40
2018-12-22T11:09:44.663Z,40
2018-12-22T11:10:43.208Z,45
2018-12-22T11:11:41.761Z,55
2018-12-22T11:12:40.634Z,60
2018-12-22T11:13:39.163Z,60
2018-12-22T11:14:37.903Z,65
2018-12-22T11:15:36.738Z,70
2018-12-22T11:16:35.285Z,80
2018-12-22T11:17:33.883Z,85
2018-12-22T11:18:32.619Z,90
2018-12-22T11:19:31.213Z,95
2018-12-22T11:20:29.742Z,100
2018-12-22T11:21:28.353Z,90
2018-12-22T11:22:26.976Z,90
2018-12-22T11:23:25.570Z,90
2018-12-22T11:24:24.394Z,90
2018-12-22T11:25:23.205Z,90
2018-12-22T11:26:21.819Z,90
2018-12-22T11:27:20.335Z,85
2018-12-22T11:28:18.901Z,85
2018-12-22T11:29:17.435Z,80
2018-12-22T11:30:16.089Z,75
2018-12-22T11:31:14.724Z,70
2018-12-22T11:32:13.248Z,75
2018-12-22T11:33:12.073Z,75
2018-12-22T11:34:10.880Z,80
2018-12-22T11:35:09.514Z,80
2018-12-22T11:36:08.245Z,80
2018-12-22T11:37:06.978Z,85
2018-12-22T11:38:05.527Z,90
2018-12-22T11:39:04.461Z,90
2018-12-22T11:40:03.011Z,90
2018-12-22T11:41:01.584Z,90
2018-12-22T11:42:00.338Z,85
2018-12-22T11:42:59.278Z,85
2018-12-22T11:43:57.907Z,80
2018-12-22T11:44:56.531Z,85
2018-12-22T11:45:55.085Z,85
2018-12-22T11:46:53.656Z,85
2018-12-22T11:47:52.405Z,85
2018-12-22T11:48:50.951Z,80
2018-12-22T11:49:49.505Z,85
2018-12-22T11:50:48.345Z,85
2018-12-22T11:51:46.939Z,95
2018-12-22T11:52:45.501Z,95
2018-12-22T11:53:44.257Z,95
2018-12-22T11:54:42.757Z,100
2018-12-22T11:55:41.373Z,100
2018-12-22T11:56:40.020Z,100
2018-12-22T11:57:38.708Z,100
2018-12-22T11:58:38.351Z,90
2018-12-22T11:59:35.945Z,80
2018-12-22T12:00:34.727Z,75
2018-12-22T12:01:33.304Z,80
2018-12-22T12:02:31.934Z,85
2018-12-22T12:03:30.662Z,75
2018-12-22T12:04:29.323Z,65
2018-12-22T12:05:28.038Z,55
2018-12-22T12:06:26.856Z,50
2018-12-22T12:07:25.537Z,40
2018-12-22T12:08:24.133Z,35
2018-12-22T12:09:22.720Z,40
2018-12-22T12:10:21.335Z,40
2018-12-22T12:11:20.080Z,30
2018-12-22T12:12:18.775Z,25
2018-12-22T12:13:17.316Z,30
2018-12-22T12:14:15.830Z,30
2018-12-22T12:15:14.479Z,25
2018-12-22T12:16:12.995Z,15
2018-12-22T12:17:11.519Z,20
2018-12-22T12:18:10.074Z,20
2018-12-22T12:19:08.568Z,20
2018-12-22T12:20:07.145Z,25
2018-12-22T12:21:05.763Z,25
2018-12-22T12:22:04.493Z,25
2018-12-22T12:23:03.013Z,30
2018-12-22T12:24:01.591Z,35
2018-12-22T12:27:17.011Z,35
2018-12-22T12:28:15.525Z,30
2018-12-22T12:29:14.246Z,30
2018-12-22T12:30:12.828Z,25
2018-12-22T12:31:11.398Z,20
2018-12-22T12:32:10.200Z,15
2018-12-22T12:33:08.849Z,10
2018-12-22T12:34:07.430Z,10
2018-12-22T12:35:06.047Z,10
2018-12-22T12:36:04.824Z,10
2018-12-22T12:37:03.467Z,10
2018-12-22T12:38:02.185Z,15
2018-12-22T12:39:00.946Z,15
2018-12-22T12:39:59.441Z,15
2018-12-22T12:40:58.066Z,15
2018-12-22T12:41:56.938Z,20
2018-12-22T12:42:55.437Z,20
2018-12-22T12:43:54.029Z,20
2018-12-22T12:44:52.589Z,20
2018-12-22T12:45:51.122Z,20
2018-12-22T12:46:49.916Z,15
2018-12-22T12:47:48.755Z,15
2018-12-22T12:48:47.362Z,15
2018-12-22T12:49:45.981Z,10
2018-12-22T12:50:44.564Z,10
2018-12-22T12:51:43.269Z,10
2018-12-22T12:52:41.925Z,10
2018-12-22T12:53:40.812Z,10
2018-12-22T12:54:39.323Z,5
2018-12-22T12:55:37.896Z,5
2018-12-22T12:56:36.680Z,5
2018-12-22T12:57:35.226Z,5
2018-12-22T12:58:33.749Z,20
2018-12-22T12:59:32.386Z,25
2018-12-22T13:00:30.844Z,30
2018-12-22T13:01:29.479Z,40
2018-12-22T13:02:28.132Z,45
2018-12-22T13:03:26.841Z,40
2018-12-22T13:04:25.336Z,40
2018-12-22T13:05:23.977Z,35
2018-12-22T13:06:22.826Z,40
2018-12-22T13:07:21.509Z,40
2018-12-22T13:08:20.155Z,40
2018-12-22T13:09:18.847Z,35
2018-12-22T13:10:17.483Z,30
2018-12-22T13:11:16.002Z,30
2018-12-22T13:12:14.877Z,25
2018-12-22T13:13:13.439Z,20
2018-12-22T13:14:11.972Z,20
2018-12-22T13:15:10.517Z,15
2018-12-22T13:16:09.057Z,15
2018-12-22T13:17:07.596Z,20
2018-12-22T13:18:06.095Z,15
2018-12-22T13:19:04.678Z,10
2018-12-22T13:20:03.247Z,10
2018-12-22T13:21:01.892Z,10
2018-12-22T13:22:00.700Z,10
2018-12-22T13:22:59.214Z,20
2018-12-22T13:23:57.862Z,25
2018-12-22T13:24:56.593Z,30
2018-12-22T13:25:55.133Z,25
2018-12-22T13:26:53.677Z,30
2018-12-22T13:27:52.218Z,25
2018-12-22T13:28:50.779Z,20
2018-12-22T13:29:49.346Z,10
2018-12-22T13:30:48.093Z,10
2018-12-22T13:31:46.845Z,10
2018-12-22T13:32:45.536Z,10
2018-12-22T13:33:44.236Z,5
2018-12-22T13:34:42.834Z,5
2018-12-22T13:35:41.359Z,5
2018-12-22T13:36:39.904Z,5
2018-12-22T13:37:38.490Z,5
2018-12-22T13:38:37.054Z,5
2018-12-22T13:39:35.587Z,10
2018-12-22T13:40:34.206Z,10
2018-12-22T13:41:32.886Z,15
2018-12-22T13:42:31.423Z,10
2018-12-22T13:43:30.087Z,10
2018-12-22T13:44:28.875Z,10
2018-12-22T13:45:27.414Z,10
2018-12-22T13:46:26.073Z,10
2018-12-22T13:47:24.604Z,15
2018-12-22T13:48:23.403Z,20
2018-12-22T13:49:22.056Z,20
2018-12-22T13:50:20.577Z,20
2018-12-22T13:51:19.409Z,20
2018-12-22T13:52:17.593Z,20
2018-12-22T13:53:16.257Z,20
2018-12-22T13:54:14.959Z,20
2018-12-22T13:55:13.493Z,20
2018-12-22T13:56:12.090Z,20
2018-12-22T13:57:10.633Z,15
2018-12-22T13:58:09.210Z,10
2018-12-22T13:59:07.740Z,10
2018-12-22T14:00:06.284Z,10
2018-12-22T14:01:04.850Z,5
2018-12-22T14:02:03.400Z,5
2018-12-22T14:03:02.089Z,5
2018-12-22T14:04:00.783Z,10
2018-12-22T14:04:59.348Z,10
2018-12-22T14:05:57.925Z,10
2018-12-22T14:06:56.518Z,10
2018-12-22T14:07:55.253Z,10
2018-12-22T14:08:53.840Z,10
2018-12-22T14:09:52.477Z,15
2018-12-22T14:10:51.019Z,15
2018-12-22T14:11:49.638Z,15
2018-12-22T14:12:48.277Z,10
2018-12-22T14:13:46.918Z,10
2018-12-22T14:14:45.447Z,10
2018-12-22T14:15:44.090Z,10
2018-12-22T14:16:42.816Z,15
2018-12-22T14:17:41.369Z,15
2018-12-22T14:18:39.899Z,10
2018-12-22T14:19:40.491Z,10
2018-12-22T14:20:37.115Z,10
2018-12-22T14:21:35.624Z,5
2018-12-22T14:22:34.151Z,5
2018-12-22T14:23:32.711Z,5
2018-12-22T14:24:31.237Z,5
2018-12-22T14:25:29.829Z,5
2018-12-22T14:26:28.631Z,5
2018-12-22T14:27:27.168Z,5
2018-12-22T14:28:25.703Z,5